Time;durP1;ratioP1;P1;durP2;ratioP2;P2;SDS_P1;SDS_P2;PMS_P1;PMS_P2;Temp;Humidity;BMP_temperature;BMP_pressure;BME280_temperature;BME280_humidity;BME280_pressure;Samples;Min_cycle;Max_cycle;Signal;HPM_P1;HPM_P2
2023/02/18 00:01:38;;;;;;;1.00;0.53;;;;;;;;;;5067213;28;20099;-64
2023/02/18 00:04:04;;;;;;;0.40;0.33;;;;;;;;;;5064274;28;20486;-64
2023/02/18 00:14:26;;;;;;;0.50;0.30;;;;;;;;;;5191814;27;20328;-64
2023/02/18 00:16:52;;;;;;;18.53;1.37;;;;;;;;;;5094238;27;2131236;-64
2023/02/18 00:19:20;;;;;;;0.50;0.30;;;;;;;;;;5171541;27;20035;-64
2023/02/18 00:21:47;;;;;;;0.43;0.40;;;;;;;;;;5171890;27;20445;-64
2023/02/18 00:31:20;;;;;;;3.53;1.10;;;;;;;;;;5023034;28;20476;-64
2023/02/18 00:33:46;;;;;;;0.83;0.50;;;;;;;;;;5025793;28;20026;-64
2023/02/18 00:38:56;;;;;;;0.43;0.40;;;;;;;;;;5081727;27;2134702;-64
2023/02/18 00:43:58;;;;;;;0.30;0.20;;;;;;;;;;5079925;27;20937;-64
2023/02/18 00:46:25;;;;;;;0.90;0.40;;;;;;;;;;5067208;28;20033;-65
2023/02/18 00:48:52;;;;;;;0.10;0.10;;;;;;;;;;5064423;28;20032;-65
2023/02/18 00:51:18;;;;;;;0.60;0.40;;;;;;;;;;5064252;28;20021;-65
2023/02/18 00:53:45;;;;;;;0.50;0.37;;;;;;;;;;5064416;28;20020;-65
2023/02/18 00:56:12;;;;;;;0.20;0.13;;;;;;;;;;5064959;28;20028;-65
2023/02/18 00:58:39;;;;;;;1.00;0.50;;;;;;;;;;5069445;28;20017;-65
2023/02/18 01:01:06;;;;;;;0.63;0.40;;;;;;;;;;5068853;28;20025;-65
2023/02/18 01:03:33;;;;;;;0.83;0.60;;;;;;;;;;5069208;28;20029;-65
2023/02/18 01:06:00;;;;;;;0.40;0.20;;;;;;;;;;5069149;28;20064;-64
2023/02/18 01:12:00;;;;;;;1.65;0.80;;;;;;;;;;5076958;27;2124113;-64
2023/02/18 01:14:27;;;;;;;1.50;0.90;;;;;;;;;;5122617;28;20038;-64
2023/02/18 01:19:15;;;;;;;0.80;0.60;;;;;;;;;;5186434;27;20357;-62
2023/02/18 01:21:42;;;;;;;13.03;0.70;;;;;;;;;;5093935;27;2140037;-63
2023/02/18 01:24:08;;;;;;;0.53;0.40;;;;;;;;;;5172268;27;20026;-61
2023/02/18 01:26:35;;;;;;;0.67;0.50;;;;;;;;;;5158445;27;20035;-62
2023/02/18 01:29:02;;;;;;;0.47;0.30;;;;;;;;;;5148402;27;20019;-62
2023/02/18 01:31:28;;;;;;;2.17;0.93;;;;;;;;;;5147569;27;20114;-61
2023/02/18 01:33:55;;;;;;;3.77;0.67;;;;;;;;;;5144768;27;20034;-62
2023/02/18 01:36:22;;;;;;;1.37;0.90;;;;;;;;;;5145537;27;20057;-63
2023/02/18 01:38:48;;;;;;;0.40;0.30;;;;;;;;;;5145782;27;20039;-62
2023/02/18 01:41:15;;;;;;;1.30;0.73;;;;;;;;;;5147126;27;20015;-63
2023/02/18 01:43:42;;;;;;;0.70;0.50;;;;;;;;;;5143262;27;20035;-62
2023/02/18 01:46:16;;;;;;;1.13;0.57;;;;;;;;;;5151119;27;20443;-62
2023/02/18 01:48:45;;;;;;;1.17;0.70;;;;;;;;;;5150949;27;20026;-63
2023/02/18 01:51:14;;;;;;;0.20;0.13;;;;;;;;;;5150515;27;20499;-67
2023/02/18 01:53:45;;;;;;;2.83;0.53;;;;;;;;;;5148119;27;20023;-64
2023/02/18 01:56:16;;;;;;;1.13;0.63;;;;;;;;;;5145267;27;20059;-63
2023/02/18 01:58:43;;;;;;;0.20;0.20;;;;;;;;;;5145424;27;20031;-63
2023/02/18 02:01:11;;;;;;;0.67;0.60;;;;;;;;;;5145277;27;20034;-62
2023/02/18 02:03:37;;;;;;;0.70;0.53;;;;;;;;;;5147320;27;20552;-64
2023/02/18 02:06:06;;;;;;;0.53;0.50;;;;;;;;;;5150226;27;20023;-62
2023/02/18 02:08:33;;;;;;;0.93;0.60;;;;;;;;;;5150418;27;20095;-64
2023/02/18 02:11:06;;;;;;;1.00;0.33;;;;;;;;;;5149663;27;20027;-62
2023/02/18 02:13:47;;;;;;;0.90;0.57;;;;;;;;;;5150507;27;20027;-62
2023/02/18 02:16:22;;;;;;;0.80;0.60;;;;;;;;;;5147568;27;20027;-62
2023/02/18 02:18:58;;;;;;;0.90;0.73;;;;;;;;;;5145122;27;20050;-63
2023/02/18 02:21:28;;;;;;;1.07;0.67;;;;;;;;;;5144681;27;20080;-63
2023/02/18 02:24:13;;;;;;;0.93;0.70;;;;;;;;;;5144287;27;20322;-63
2023/02/18 02:26:59;;;;;;;0.85;0.57;;;;;;;;;;5145554;27;20027;-63
2023/02/18 02:29:35;;;;;;;0.63;0.40;;;;;;;;;;5137079;27;20031;-61
2023/02/18 02:32:05;;;;;;;0.37;0.30;;;;;;;;;;5136288;27;20046;-61
2023/02/18 02:34:39;;;;;;;0.17;0.13;;;;;;;;;;5136179;27;20034;-61
2023/02/18 02:37:24;;;;;;;0.20;0.20;;;;;;;;;;5136336;27;20019;-61
2023/02/18 02:39:56;;;;;;;0.20;0.10;;;;;;;;;;5112174;27;20030;-62
2023/02/18 02:42:29;;;;;;;0.10;0.10;;;;;;;;;;5129278;27;20023;-61
2023/02/18 02:45:06;;;;;;;0.20;0.20;;;;;;;;;;5129271;27;20023;-61
2023/02/18 02:47:46;;;;;;;1.10;0.70;;;;;;;;;;5123317;27;20019;-61
2023/02/18 02:50:32;;;;;;;0.40;0.23;;;;;;;;;;5123129;27;20098;-61
2023/02/18 02:53:02;;;;;;;0.83;0.40;;;;;;;;;;5118942;27;20388;-61
2023/02/18 02:55:28;;;;;;;1.17;0.40;;;;;;;;;;5135599;27;20046;-62
2023/02/18 02:57:56;;;;;;;0.30;0.30;;;;;;;;;;5135739;27;20396;-61
2023/02/18 03:00:32;;;;;;;0.53;0.50;;;;;;;;;;5120704;27;20039;-62
2023/02/18 03:03:31;;;;;;;1.27;0.37;;;;;;;;;;5109831;28;20020;-61
2023/02/18 03:06:04;;;;;;;1.90;0.53;;;;;;;;;;5054144;28;20046;-61
2023/02/18 03:08:41;;;;;;;0.50;0.30;;;;;;;;;;5109835;28;20073;-62
2023/02/18 03:11:12;;;;;;;1.13;0.40;;;;;;;;;;5112798;28;20031;-61
2023/02/18 03:13:38;;;;;;;0.10;0.10;;;;;;;;;;5114993;28;20028;-61
2023/02/18 03:16:20;;;;;;;0.27;0.27;;;;;;;;;;5114341;28;20032;-61
2023/02/18 03:18:51;;;;;;;0.20;0.10;;;;;;;;;;5114627;28;20084;-61
2023/02/18 03:21:26;;;;;;;0.10;0.10;;;;;;;;;;5114924;28;20019;-61
2023/02/18 03:23:52;;;;;;;;;;;;;;;;;;5110605;28;20028;-61
2023/02/18 03:26:20;;;;;;;0.00;0.00;;;;;;;;;;5111270;27;19927;-62
2023/02/18 03:28:49;;;;;;;0.63;0.30;;;;;;;;;;5129105;27;20488;-61
2023/02/18 03:31:18;;;;;;;0.07;0.07;;;;;;;;;;5116542;27;20535;-62
2023/02/18 03:33:54;;;;;;;3.07;0.33;;;;;;;;;;5124765;27;20024;-62
2023/02/18 03:36:21;;;;;;;0.10;0.10;;;;;;;;;;5123818;27;20031;-62
2023/02/18 03:38:54;;;;;;;0.67;0.33;;;;;;;;;;5134928;27;20045;-61
2023/02/18 03:41:21;;;;;;;0.13;0.13;;;;;;;;;;5133899;27;20033;-61
2023/02/18 03:43:51;;;;;;;0.20;0.20;;;;;;;;;;5134726;27;20034;-62
2023/02/18 03:46:18;;;;;;;0.00;0.00;;;;;;;;;;5130146;27;20504;-61
2023/02/18 03:48:45;;;;;;;0.37;0.10;;;;;;;;;;5129169;27;20023;-62
2023/02/18 03:51:11;;;;;;;0.27;0.23;;;;;;;;;;5127781;27;20086;-62
2023/02/18 03:53:38;;;;;;;1.73;0.40;;;;;;;;;;5128948;27;20469;-63
2023/02/18 03:56:05;;;;;;;0.50;0.30;;;;;;;;;;5132569;27;20080;-62
2023/02/18 03:58:32;;;;;;;0.63;0.30;;;;;;;;;;5134521;27;20031;-61
2023/02/18 04:00:58;;;;;;;0.10;0.10;;;;;;;;;;5134537;27;20062;-61
2023/02/18 04:03:25;;;;;;;0.53;0.30;;;;;;;;;;5134538;27;20080;-61
2023/02/18 04:05:52;;;;;;;0.07;0.07;;;;;;;;;;5134531;27;20072;-61
2023/02/18 04:08:18;;;;;;;0.20;0.20;;;;;;;;;;5129816;27;20508;-62
2023/02/18 04:10:45;;;;;;;0.23;0.20;;;;;;;;;;5129056;27;20039;-62
2023/02/18 04:13:12;;;;;;;0.10;0.10;;;;;;;;;;5129106;27;20030;-62
2023/02/18 04:15:38;;;;;;;0.47;0.33;;;;;;;;;;5128336;27;20024;-62
2023/02/18 04:18:05;;;;;;;1.63;0.50;;;;;;;;;;5131662;27;20031;-62
2023/02/18 04:20:32;;;;;;;8.63;0.33;;;;;;;;;;5133214;27;20110;-61
2023/02/18 04:22:59;;;;;;;0.63;0.40;;;;;;;;;;5134141;27;20431;-62
2023/02/18 04:25:25;;;;;;;0.33;0.20;;;;;;;;;;5133730;27;20023;-62
2023/02/18 04:27:52;;;;;;;0.30;0.30;;;;;;;;;;5133427;27;20098;-62
2023/02/18 04:30:19;;;;;;;0.10;0.10;;;;;;;;;;5113499;27;20038;-62
2023/02/18 04:32:45;;;;;;;0.10;0.10;;;;;;;;;;5121326;27;20351;-61
2023/02/18 04:35:12;;;;;;;0.20;0.20;;;;;;;;;;5128624;27;20026;-62
2023/02/18 04:37:39;;;;;;;0.30;0.30;;;;;;;;;;5127062;27;20035;-61
2023/02/18 04:40:06;;;;;;;0.53;0.33;;;;;;;;;;5119535;27;20056;-62
2023/02/18 04:42:33;;;;;;;0.10;0.10;;;;;;;;;;5133475;27;20419;-62
2023/02/18 04:44:59;;;;;;;5.10;0.57;;;;;;;;;;5120363;27;20019;-62
2023/02/18 04:47:26;;;;;;;0.33;0.23;;;;;;;;;;5113040;28;20023;-62
2023/02/18 04:49:53;;;;;;;0.30;0.30;;;;;;;;;;5128432;27;20453;-62
2023/02/18 04:52:20;;;;;;;2.37;0.57;;;;;;;;;;5130597;27;20019;-62
2023/02/18 04:54:46;;;;;;;0.00;0.00;;;;;;;;;;5128293;27;20023;-62
2023/02/18 04:57:13;;;;;;;0.40;0.33;;;;;;;;;;5127630;27;20298;-62
2023/02/18 04:59:40;;;;;;;0.27;0.27;;;;;;;;;;5127983;27;20023;-62
2023/02/18 05:02:07;;;;;;;0.30;0.30;;;;;;;;;;5130039;27;20029;-62
2023/02/18 05:04:33;;;;;;;0.83;0.40;;;;;;;;;;5133327;27;20069;-62
2023/02/18 05:07:00;;;;;;;0.30;0.20;;;;;;;;;;5133132;27;20030;-62
2023/02/18 05:09:27;;;;;;;6.80;1.23;;;;;;;;;;5133278;27;20051;-61
2023/02/18 05:11:53;;;;;;;1.17;0.57;;;;;;;;;;5133345;27;20035;-61
2023/02/18 05:14:20;;;;;;;0.60;0.40;;;;;;;;;;5130975;27;20045;-61
2023/02/18 05:16:47;;;;;;;2.17;0.80;;;;;;;;;;5127887;28;20098;-62
2023/02/18 05:19:16;;;;;;;1.73;0.43;;;;;;;;;;5127945;28;20442;-62
2023/02/18 05:21:43;;;;;;;0.23;0.20;;;;;;;;;;5127877;28;20034;-61
2023/02/18 05:24:10;;;;;;;0.70;0.57;;;;;;;;;;5129051;28;20011;-61
2023/02/18 05:26:37;;;;;;;1.07;0.40;;;;;;;;;;5115637;28;20114;-61
2023/02/18 05:29:04;;;;;;;0.57;0.43;;;;;;;;;;5124870;28;20068;-62
2023/02/18 05:31:31;;;;;;;0.63;0.27;;;;;;;;;;5133161;28;20031;-61
2023/02/18 05:33:57;;;;;;;0.97;0.67;;;;;;;;;;5130910;28;20458;-61
2023/02/18 05:36:24;;;;;;;0.67;0.50;;;;;;;;;;5110920;28;20016;-61
2023/02/18 05:38:51;;;;;;;0.30;0.30;;;;;;;;;;5107065;28;20024;-61
2023/02/18 05:41:20;;;;;;;0.20;0.20;;;;;;;;;;5107058;28;20474;-61
2023/02/18 05:46:31;;;;;;;0.63;0.40;;;;;;;;;;5108858;28;20446;-61
2023/02/18 05:48:58;;;;;;;0.93;0.60;;;;;;;;;;5112558;28;20023;-61
2023/02/18 05:51:25;;;;;;;0.30;0.30;;;;;;;;;;5118487;28;20015;-61
2023/02/18 05:53:52;;;;;;;0.70;0.60;;;;;;;;;;5132386;28;20020;-60
2023/02/18 05:56:18;;;;;;;1.67;0.83;;;;;;;;;;5133091;28;20027;-60
2023/02/18 05:58:45;;;;;;;2.33;0.70;;;;;;;;;;5131036;28;20038;-62
2023/02/18 06:01:12;;;;;;;0.80;0.60;;;;;;;;;;5127696;28;20027;-62
2023/02/18 06:03:38;;;;;;;0.80;0.53;;;;;;;;;;5127750;27;20023;-61
2023/02/18 06:06:05;;;;;;;0.40;0.40;;;;;;;;;;5131519;27;20054;-61
2023/02/18 06:08:32;;;;;;;1.40;0.53;;;;;;;;;;5131680;27;20026;-61
2023/02/18 06:10:59;;;;;;;0.93;0.53;;;;;;;;;;5134451;27;20585;-63
2023/02/18 06:13:25;;;;;;;0.93;0.47;;;;;;;;;;5136197;27;20027;-63
2023/02/18 06:15:53;;;;;;;1.43;0.30;;;;;;;;;;5136143;27;20023;-63
2023/02/18 06:18:20;;;;;;;0.80;0.30;;;;;;;;;;5136401;27;20366;-63
2023/02/18 06:20:48;;;;;;;1.20;0.50;;;;;;;;;;5135325;27;20015;-63
2023/02/18 06:23:15;;;;;;;0.43;0.33;;;;;;;;;;5110354;28;20473;-63
2023/02/18 06:25:42;;;;;;;1.37;0.67;;;;;;;;;;5110562;28;20106;-63
2023/02/18 06:28:09;;;;;;;0.93;0.37;;;;;;;;;;5114695;27;20027;-63
2023/02/18 06:30:36;;;;;;;0.87;0.63;;;;;;;;;;5131398;27;20038;-62
2023/02/18 06:33:05;;;;;;;0.40;0.33;;;;;;;;;;5136403;27;20020;-63
2023/02/18 06:35:32;;;;;;;0.20;0.17;;;;;;;;;;5135778;27;20027;-62
2023/02/18 06:37:59;;;;;;;0.67;0.43;;;;;;;;;;5135825;27;20070;-61
2023/02/18 06:40:26;;;;;;;1.03;0.70;;;;;;;;;;5135844;27;20054;-62
2023/02/18 06:42:52;;;;;;;0.90;0.57;;;;;;;;;;5134089;27;20030;-62
2023/02/18 06:45:19;;;;;;;0.13;0.13;;;;;;;;;;5130692;27;20035;-64
2023/02/18 06:47:46;;;;;;;0.17;0.17;;;;;;;;;;5121691;27;20369;-62
2023/02/18 06:50:13;;;;;;;0.70;0.50;;;;;;;;;;5123721;27;20071;-62
2023/02/18 06:52:39;;;;;;;0.77;0.50;;;;;;;;;;5130184;27;20032;-63
2023/02/18 06:55:08;;;;;;;0.70;0.53;;;;;;;;;;5135656;27;20083;-63
2023/02/18 06:57:35;;;;;;;0.90;0.60;;;;;;;;;;5135104;27;20068;-62
2023/02/18 07:00:02;;;;;;;0.90;0.50;;;;;;;;;;5134820;27;20023;-62
2023/02/18 07:02:28;;;;;;;6.87;0.50;;;;;;;;;;5135646;27;20461;-62
2023/02/18 07:04:55;;;;;;;6.57;1.47;;;;;;;;;;5135144;27;20037;-62
2023/02/18 07:07:22;;;;;;;0.93;0.50;;;;;;;;;;5129671;27;20030;-63
2023/02/18 07:09:48;;;;;;;2.73;1.03;;;;;;;;;;5129500;27;20076;-62
2023/02/18 07:12:15;;;;;;;0.97;0.57;;;;;;;;;;5130097;27;20448;-62
2023/02/18 07:14:42;;;;;;;0.73;0.50;;;;;;;;;;5129725;27;20024;-63
2023/02/18 07:17:08;;;;;;;0.47;0.30;;;;;;;;;;5134139;27;20031;-63
2023/02/18 07:19:35;;;;;;;0.60;0.43;;;;;;;;;;5135171;27;20530;-62
2023/02/18 07:22:02;;;;;;;0.37;0.37;;;;;;;;;;5134576;27;20276;-63
2023/02/18 07:24:28;;;;;;;0.43;0.43;;;;;;;;;;5135130;27;20098;-62
2023/02/18 07:26:55;;;;;;;0.83;0.60;;;;;;;;;;5134812;27;20320;-62
2023/02/18 07:29:22;;;;;;;1.87;0.60;;;;;;;;;;5129506;27;20027;-63
2023/02/18 07:31:48;;;;;;;2.17;0.70;;;;;;;;;;5129461;27;20599;-62
2023/02/18 07:34:15;;;;;;;0.57;0.40;;;;;;;;;;5128948;27;20030;-63
2023/02/18 07:36:42;;;;;;;0.60;0.47;;;;;;;;;;5129266;27;20255;-62
2023/02/18 07:39:08;;;;;;;0.30;0.30;;;;;;;;;;5133646;27;20050;-62
2023/02/18 07:41:35;;;;;;;0.80;0.50;;;;;;;;;;5134864;27;20102;-62
2023/02/18 07:44:02;;;;;;;0.67;0.43;;;;;;;;;;5134146;27;20338;-62
2023/02/18 07:46:28;;;;;;;0.80;0.57;;;;;;;;;;5134093;27;20270;-62
2023/02/18 07:48:58;;;;;;;1.20;0.60;;;;;;;;;;5134482;27;20074;-62
2023/02/18 07:51:25;;;;;;;0.50;0.40;;;;;;;;;;5129578;27;20274;-62
2023/02/18 07:53:52;;;;;;;0.27;0.27;;;;;;;;;;5129105;27;20024;-62
2023/02/18 07:56:18;;;;;;;0.83;0.40;;;;;;;;;;5129422;27;21043;-63
2023/02/18 07:58:45;;;;;;;0.63;0.57;;;;;;;;;;5128518;27;20318;-62
2023/02/18 08:01:14;;;;;;;0.50;0.40;;;;;;;;;;5132984;27;20321;-62
2023/02/18 08:03:40;;;;;;;0.67;0.40;;;;;;;;;;5134178;27;20254;-62
2023/02/18 08:06:08;;;;;;;0.70;0.60;;;;;;;;;;5134016;27;20267;-62
2023/02/18 08:08:34;;;;;;;1.40;0.57;;;;;;;;;;5133982;27;20262;-62
2023/02/18 08:11:02;;;;;;;0.50;0.33;;;;;;;;;;5134048;27;20278;-62
2023/02/18 08:13:29;;;;;;;0.40;0.30;;;;;;;;;;5129741;27;20294;-62
2023/02/18 08:15:56;;;;;;;2.20;0.50;;;;;;;;;;5128719;27;20270;-62
2023/02/18 08:18:24;;;;;;;0.77;0.63;;;;;;;;;;5128452;27;20283;-62
2023/02/18 08:20:51;;;;;;;2.90;1.13;;;;;;;;;;5128464;27;20670;-62
2023/02/18 08:23:21;;;;;;;2.43;1.10;;;;;;;;;;5131312;27;20264;-62
2023/02/18 08:25:52;;;;;;;0.50;0.50;;;;;;;;;;5133766;27;21114;-62
2023/02/18 08:28:19;;;;;;;0.30;0.30;;;;;;;;;;5133138;27;20351;-62
2023/02/18 08:30:46;;;;;;;0.50;0.40;;;;;;;;;;5133601;27;20274;-63
2023/02/18 08:33:13;;;;;;;4.00;0.73;;;;;;;;;;5115641;27;20347;-62
2023/02/18 08:35:40;;;;;;;0.77;0.40;;;;;;;;;;5129224;27;20267;-62
2023/02/18 08:38:06;;;;;;;1.03;0.67;;;;;;;;;;5127623;27;20382;-63
2023/02/18 08:40:33;;;;;;;0.97;0.50;;;;;;;;;;5109002;27;20650;-62
2023/02/18 08:43:00;;;;;;;13.00;1.30;;;;;;;;;;5128229;27;20288;-62
2023/02/18 08:45:27;;;;;;;0.30;0.30;;;;;;;;;;5131867;27;20291;-62
2023/02/18 08:47:53;;;;;;;1.03;0.50;;;;;;;;;;5133732;27;20294;-62
2023/02/18 08:50:24;;;;;;;1.10;0.63;;;;;;;;;;5133853;27;20257;-62
2023/02/18 08:52:51;;;;;;;0.67;0.43;;;;;;;;;;5133438;27;20590;-62
2023/02/18 08:55:20;;;;;;;0.10;0.10;;;;;;;;;;5133446;27;20259;-62
2023/02/18 08:57:49;;;;;;;1.40;0.77;;;;;;;;;;5129246;27;20926;-62
2023/02/18 09:00:16;;;;;;;1.03;0.73;;;;;;;;;;5128059;27;20288;-62
2023/02/18 09:02:43;;;;;;;1.00;0.50;;;;;;;;;;5128018;27;20255;-62
2023/02/18 09:05:10;;;;;;;0.50;0.50;;;;;;;;;;5128106;27;20399;-62
2023/02/18 09:07:37;;;;;;;1.60;0.80;;;;;;;;;;5131367;27;20571;-62
2023/02/18 09:10:04;;;;;;;0.80;0.57;;;;;;;;;;5132982;27;20256;-62
2023/02/18 09:12:31;;;;;;;0.37;0.30;;;;;;;;;;5133353;27;20283;-62
2023/02/18 09:14:58;;;;;;;0.20;0.20;;;;;;;;;;5133390;27;20259;-62
2023/02/18 09:17:24;;;;;;;6.40;0.70;;;;;;;;;;5133189;28;20248;-62
2023/02/18 09:19:51;;;;;;;0.43;0.40;;;;;;;;;;5129724;28;20321;-63
2023/02/18 09:22:18;;;;;;;0.93;0.60;;;;;;;;;;5127993;28;20274;-62
2023/02/18 09:24:45;;;;;;;1.03;0.50;;;;;;;;;;5127811;28;20259;-62
2023/02/18 09:27:11;;;;;;;1.03;0.63;;;;;;;;;;5127499;28;20335;-62
2023/02/18 09:29:39;;;;;;;0.30;0.20;;;;;;;;;;5130607;28;20279;-62
2023/02/18 09:32:06;;;;;;;0.63;0.57;;;;;;;;;;5133205;28;20334;-62
2023/02/18 09:34:33;;;;;;;0.30;0.30;;;;;;;;;;5132946;28;20283;-62
2023/02/18 09:37:00;;;;;;;5.10;0.50;;;;;;;;;;5133121;28;20248;-62
2023/02/18 09:39:26;;;;;;;1.27;0.77;;;;;;;;;;5134345;27;20404;-62
2023/02/18 09:41:54;;;;;;;0.20;0.20;;;;;;;;;;5133976;27;20271;-62
2023/02/18 09:44:25;;;;;;;1.27;0.93;;;;;;;;;;5132055;27;20259;-62
2023/02/18 09:46:57;;;;;;;0.33;0.30;;;;;;;;;;5131843;27;20266;-62
2023/02/18 09:49:26;;;;;;;0.30;0.30;;;;;;;;;;5131741;27;20291;-62
2023/02/18 09:51:56;;;;;;;1.40;1.00;;;;;;;;;;5134343;27;20336;-62
2023/02/18 09:54:23;;;;;;;1.70;0.40;;;;;;;;;;5137062;27;20252;-62
2023/02/18 09:56:51;;;;;;;0.60;0.60;;;;;;;;;;5136481;27;20248;-61
2023/02/18 09:59:19;;;;;;;0.53;0.53;;;;;;;;;;5136954;27;20365;-61
2023/02/18 10:01:48;;;;;;;0.43;0.43;;;;;;;;;;5136937;27;20312;-62
2023/02/18 10:04:22;;;;;;;0.40;0.40;;;;;;;;;;5133457;27;20259;-62
2023/02/18 10:06:50;;;;;;;0.73;0.60;;;;;;;;;;5131490;27;20263;-62
2023/02/18 10:09:17;;;;;;;0.40;0.40;;;;;;;;;;5130863;27;20326;-62
2023/02/18 10:11:45;;;;;;;0.27;0.27;;;;;;;;;;5131572;27;20313;-62
2023/02/18 10:14:13;;;;;;;0.67;0.50;;;;;;;;;;5134442;27;20320;-62
2023/02/18 10:16:40;;;;;;;0.10;0.10;;;;;;;;;;5136630;27;20270;-62
2023/02/18 10:19:19;;;;;;;0.20;0.20;;;;;;;;;;5136417;27;20639;-61
2023/02/18 10:21:47;;;;;;;1.33;0.83;;;;;;;;;;5136282;27;20259;-62
2023/02/18 10:24:28;;;;;;;0.90;0.43;;;;;;;;;;5136149;27;20256;-62
2023/02/18 10:26:55;;;;;;;0.70;0.50;;;;;;;;;;5131730;27;20255;-62
2023/02/18 10:29:25;;;;;;;1.17;0.60;;;;;;;;;;5131079;27;20266;-62
2023/02/18 10:32:07;;;;;;;3.53;1.37;;;;;;;;;;5130943;27;20263;-62
2023/02/18 10:34:59;;;;;;;2.83;0.73;;;;;;;;;;5130601;27;20274;-61
2023/02/18 10:37:26;;;;;;;0.30;0.27;;;;;;;;;;5131629;27;20352;-62
2023/02/18 10:40:02;;;;;;;0.70;0.60;;;;;;;;;;5136101;27;20248;-62
2023/02/18 10:42:47;;;;;;;0.90;0.63;;;;;;;;;;5136197;27;20247;-61
2023/02/18 10:45:14;;;;;;;0.20;0.20;;;;;;;;;;5136007;27;20252;-62
2023/02/18 10:47:50;;;;;;;0.30;0.30;;;;;;;;;;5134692;27;20023;-62
2023/02/18 10:50:28;;;;;;;0.40;0.37;;;;;;;;;;5129753;27;20290;-62
2023/02/18 10:52:56;;;;;;;0.93;0.50;;;;;;;;;;5130513;27;20254;-62
2023/02/18 10:55:34;;;;;;;10.93;1.23;;;;;;;;;;5130702;27;20263;-62
2023/02/18 10:58:00;;;;;;;0.83;0.67;;;;;;;;;;5132084;27;20287;-62
2023/02/18 11:00:27;;;;;;;27.47;1.03;;;;;;;;;;5135613;27;20255;-61
2023/02/18 11:03:16;;;;;;;0.50;0.50;;;;;;;;;;5135336;27;20274;-62
2023/02/18 11:05:43;;;;;;;0.20;0.20;;;;;;;;;;5135671;27;20266;-62
2023/02/18 11:08:16;;;;;;;1.80;0.50;;;;;;;;;;5135512;27;20258;-62
2023/02/18 11:10:44;;;;;;;1.40;0.83;;;;;;;;;;5132412;27;20256;-62
2023/02/18 11:13:13;;;;;;;0.83;0.63;;;;;;;;;;5130188;27;20266;-62
2023/02/18 11:15:54;;;;;;;1.67;1.00;;;;;;;;;;5129764;27;20267;-61
2023/02/18 11:18:26;;;;;;;0.20;0.20;;;;;;;;;;5130015;27;20315;-62
2023/02/18 11:20:58;;;;;;;1.50;0.40;;;;;;;;;;5133215;27;20378;-63
2023/02/18 11:23:25;;;;;;;0.50;0.50;;;;;;;;;;5135002;27;20792;-62
2023/02/18 11:26:03;;;;;;;1.50;0.57;;;;;;;;;;5135387;27;20251;-61
2023/02/18 11:28:32;;;;;;;2.00;1.03;;;;;;;;;;5135205;27;20285;-62
2023/02/18 11:31:00;;;;;;;0.90;0.50;;;;;;;;;;5135287;27;20254;-61
2023/02/18 11:33:44;;;;;;;2.50;0.43;;;;;;;;;;5130270;27;20338;-62
2023/02/18 11:36:14;;;;;;;1.30;0.40;;;;;;;;;;5129739;27;20271;-62
2023/02/18 11:38:48;;;;;;;0.50;0.50;;;;;;;;;;5129531;27;20764;-61
2023/02/18 11:41:17;;;;;;;0.90;0.80;;;;;;;;;;5129595;27;20260;-62
2023/02/18 11:43:46;;;;;;;0.30;0.30;;;;;;;;;;5133947;27;20020;-61
2023/02/18 11:46:15;;;;;;;0.33;0.33;;;;;;;;;;5134747;27;20776;-62
2023/02/18 11:48:42;;;;;;;0.43;0.37;;;;;;;;;;5134829;27;20255;-62
2023/02/18 11:51:23;;;;;;;2.60;0.73;;;;;;;;;;5134622;27;20340;-61
2023/02/18 11:53:58;;;;;;;0.90;0.53;;;;;;;;;;5134555;27;20270;-62
2023/02/18 11:56:26;;;;;;;1.35;0.60;;;;;;;;;;5129179;27;20266;-62
2023/02/18 11:58:53;;;;;;;2.90;0.70;;;;;;;;;;5129134;27;20029;-62
2023/02/18 12:01:22;;;;;;;0.30;0.30;;;;;;;;;;5128969;27;20259;-62
2023/02/18 12:03:53;;;;;;;0.63;0.60;;;;;;;;;;5128895;27;20335;-62
2023/02/18 12:06:34;;;;;;;0.40;0.40;;;;;;;;;;5134375;27;20268;-62
2023/02/18 12:09:05;;;;;;;0.57;0.43;;;;;;;;;;5134353;27;20251;-62
2023/02/18 12:11:37;;;;;;;1.07;0.90;;;;;;;;;;5134367;27;20263;-62
2023/02/18 12:14:09;;;;;;;1.03;0.50;;;;;;;;;;5134310;27;20337;-61
2023/02/18 12:16:56;;;;;;;0.03;0.03;;;;;;;;;;5132704;27;20740;-61
2023/02/18 12:19:41;;;;;;;0.57;0.47;;;;;;;;;;5111795;27;20297;-61
2023/02/18 12:22:19;;;;;;;0.55;0.40;;;;;;;;;;5128635;27;20266;-61
2023/02/18 12:25:11;;;;;;;1.33;0.80;;;;;;;;;;5128581;27;20026;-62
2023/02/18 12:27:50;;;;;;;2.07;0.70;;;;;;;;;;5132223;27;20251;-62
2023/02/18 12:30:35;;;;;;;0.30;0.30;;;;;;;;;;5133932;27;20293;-62
2023/02/18 12:33:25;;;;;;;0.82;0.70;;;;;;;;;;5133942;27;20733;-62
2023/02/18 12:35:57;;;;;;;0.90;0.70;;;;;;;;;;5084816;28;20396;-62
2023/02/18 12:38:32;;;;;;;1.33;0.70;;;;;;;;;;5112464;28;20295;-62
2023/02/18 12:41:14;;;;;;;0.35;0.25;;;;;;;;;;5107561;28;20248;-63
2023/02/18 12:43:41;;;;;;;1.67;0.57;;;;;;;;;;5107810;28;20031;-62
2023/02/18 12:46:23;;;;;;;1.20;0.60;;;;;;;;;;5107709;28;20248;-62
2023/02/18 12:48:50;;;;;;;0.60;0.60;;;;;;;;;;5109072;28;20658;-61
2023/02/18 12:51:22;;;;;;;0.47;0.40;;;;;;;;;;5113196;28;20633;-62
2023/02/18 12:53:55;;;;;;;0.50;0.47;;;;;;;;;;5112935;28;20274;-62
2023/02/18 12:56:21;;;;;;;0.43;0.43;;;;;;;;;;5113125;28;20305;-61
2023/02/18 12:58:59;;;;;;;0.40;0.40;;;;;;;;;;5112402;28;20283;-62
2023/02/18 13:01:32;;;;;;;0.70;0.60;;;;;;;;;;5110371;28;20292;-61
2023/02/18 13:04:02;;;;;;;0.40;0.40;;;;;;;;;;5107699;28;20268;-62
2023/02/18 13:06:48;;;;;;;0.50;0.50;;;;;;;;;;5107490;28;20256;-62
2023/02/18 13:09:27;;;;;;;1.15;0.68;;;;;;;;;;5107577;28;20267;-62
2023/02/18 13:11:54;;;;;;;0.10;0.10;;;;;;;;;;5110765;28;20027;-62
2023/02/18 13:14:39;;;;;;;0.80;0.63;;;;;;;;;;5112493;28;20679;-62
2023/02/18 13:17:08;;;;;;;1.30;1.00;;;;;;;;;;5112575;28;20276;-62
2023/02/18 13:19:46;;;;;;;0.30;0.30;;;;;;;;;;5112634;28;20114;-61
2023/02/18 13:22:15;;;;;;;0.20;0.20;;;;;;;;;;5112758;28;20295;-61
2023/02/18 13:24:44;;;;;;;0.20;0.20;;;;;;;;;;5107635;28;20252;-62
2023/02/18 13:27:26;;;;;;;0.33;0.30;;;;;;;;;;5107074;28;20669;-63
2023/02/18 13:30:11;;;;;;;0.37;0.37;;;;;;;;;;5107342;28;20259;-62
2023/02/18 13:32:41;;;;;;;1.23;1.02;;;;;;;;;;5107069;28;20786;-62
2023/02/18 13:35:14;;;;;;;1.20;0.93;;;;;;;;;;5127002;28;20027;-62
2023/02/18 13:37:56;;;;;;;1.03;0.90;;;;;;;;;;5133152;28;20264;-62
2023/02/18 13:40:28;;;;;;;1.07;0.90;;;;;;;;;;5133228;28;20264;-62
2023/02/18 13:43:15;;;;;;;1.67;0.93;;;;;;;;;;5133101;28;20570;-61
2023/02/18 13:45:42;;;;;;;2.27;1.10;;;;;;;;;;5130819;28;20270;-62
2023/02/18 13:48:27;;;;;;;1.53;0.97;;;;;;;;;;5127659;28;20259;-62
2023/02/18 13:50:54;;;;;;;4.45;1.77;;;;;;;;;;5127449;28;20776;-62
2023/02/18 13:53:23;;;;;;;4.47;1.10;;;;;;;;;;5127300;28;20090;-62
2023/02/18 13:55:54;;;;;;;1.43;1.00;;;;;;;;;;5129658;28;20319;-63
2023/02/18 13:58:27;;;;;;;0.23;0.23;;;;;;;;;;5132944;28;20290;-62
2023/02/18 14:00:59;;;;;;;0.20;0.20;;;;;;;;;;5132892;28;20260;-63
2023/02/18 14:03:35;;;;;;;1.10;0.70;;;;;;;;;;5132907;28;20285;-62
2023/02/18 14:06:01;;;;;;;1.00;0.73;;;;;;;;;;5132910;28;20255;-62
2023/02/18 14:08:34;;;;;;;1.13;0.93;;;;;;;;;;5129437;28;20027;-62
2023/02/18 14:11:13;;;;;;;2.17;0.70;;;;;;;;;;5127537;28;20425;-63
2023/02/18 14:14:13;;;;;;;1.60;1.00;;;;;;;;;;5127325;28;20489;-63
2023/02/18 14:16:58;;;;;;;0.40;0.30;;;;;;;;;;5127509;28;20030;-63
2023/02/18 14:19:27;;;;;;;1.17;0.38;;;;;;;;;;5132679;28;20031;-63
2023/02/18 14:22:13;;;;;;;0.40;0.33;;;;;;;;;;5132573;28;20023;-63
2023/02/18 14:24:46;;;;;;;0.83;0.67;;;;;;;;;;5132579;27;20065;-63
2023/02/18 14:27:15;;;;;;;0.73;0.63;;;;;;;;;;5136336;27;20046;-63
2023/02/18 14:29:42;;;;;;;1.97;1.00;;;;;;;;;;5134527;27;20023;-63
2023/02/18 14:32:14;;;;;;;0.37;0.33;;;;;;;;;;5130878;27;20024;-63
2023/02/18 14:34:40;;;;;;;1.00;0.80;;;;;;;;;;5130843;27;20069;-63
2023/02/18 14:37:16;;;;;;;1.37;0.90;;;;;;;;;;5131040;27;20023;-63
2023/02/18 14:39:48;;;;;;;1.47;0.90;;;;;;;;;;5131826;27;20083;-63
2023/02/18 14:42:33;;;;;;;2.43;1.37;;;;;;;;;;5135476;27;20027;-63
2023/02/18 14:45:03;;;;;;;1.02;0.80;;;;;;;;;;5136045;27;20051;-63
2023/02/18 14:47:33;;;;;;;0.63;0.50;;;;;;;;;;5136054;27;20351;-63
2023/02/18 14:50:02;;;;;;;1.43;0.80;;;;;;;;;;5135971;27;20048;-63
2023/02/18 14:52:36;;;;;;;0.63;0.60;;;;;;;;;;5132587;27;20034;-64
2023/02/18 14:55:05;;;;;;;2.28;0.77;;;;;;;;;;5130508;27;20019;-63
2023/02/18 14:57:35;;;;;;;1.43;0.87;;;;;;;;;;5130212;27;20051;-63
2023/02/18 15:00:04;;;;;;;1.10;0.47;;;;;;;;;;5130609;27;20027;-63
2023/02/18 15:02:37;;;;;;;1.20;0.70;;;;;;;;;;5133016;27;20436;-63
2023/02/18 15:05:15;;;;;;;1.20;0.63;;;;;;;;;;5135513;27;20023;-63
2023/02/18 15:07:41;;;;;;;1.53;0.87;;;;;;;;;;5135551;27;20430;-64
2023/02/18 15:10:15;;;;;;;2.63;0.70;;;;;;;;;;5135703;27;20042;-63
2023/02/18 15:12:42;;;;;;;1.13;0.57;;;;;;;;;;5135558;27;20027;-63
2023/02/18 15:15:12;;;;;;;1.40;0.80;;;;;;;;;;5131179;27;20027;-64
2023/02/18 15:17:44;;;;;;;0.93;0.70;;;;;;;;;;5130170;27;20478;-63
2023/02/18 15:20:12;;;;;;;0.93;0.77;;;;;;;;;;5130057;27;20024;-63
2023/02/18 15:22:39;;;;;;;1.23;0.43;;;;;;;;;;5129789;27;20031;-64
2023/02/18 15:25:06;;;;;;;2.63;0.97;;;;;;;;;;5133384;27;20114;-63
2023/02/18 15:27:34;;;;;;;1.30;0.70;;;;;;;;;;5134573;27;20496;-64
2023/02/18 15:30:04;;;;;;;1.00;0.70;;;;;;;;;;5133971;27;20030;-64